createdAt,value
2019-03-05T00:01:36.413Z,1.50
2019-03-05T00:04:23.875Z,1.20
2019-03-05T00:07:11.377Z,1.43
2019-03-05T00:09:58.863Z,0.97
2019-03-05T00:12:46.445Z,1.40
2019-03-05T00:15:34.012Z,1.30
2019-03-05T00:18:21.622Z,1.60
2019-03-05T00:21:09.321Z,1.90
2019-03-05T00:23:59.362Z,1.50
2019-03-05T00:26:47.097Z,1.60
2019-03-05T00:29:40.865Z,1.70
2019-03-05T00:32:28.427Z,1.77
2019-03-05T00:35:31.058Z,1.50
2019-03-05T00:38:30.830Z,1.30
2019-03-05T00:41:24.533Z,1.53
2019-03-05T00:44:15.388Z,1.63
2019-03-05T00:47:08.973Z,1.80
2019-03-05T00:50:02.377Z,1.33
2019-03-05T00:53:07.882Z,1.50
2019-03-05T00:56:07.045Z,1.60
2019-03-05T00:58:57.773Z,1.70
2019-03-05T01:01:48.172Z,1.30
2019-03-05T01:04:53.956Z,2.10
2019-03-05T01:07:42.153Z,2.03
2019-03-05T01:10:29.857Z,1.50
2019-03-05T01:13:17.503Z,1.50
2019-03-05T01:16:06.120Z,1.40
2019-03-05T01:18:53.552Z,1.30
2019-03-05T01:21:41.257Z,1.43
2019-03-05T01:24:28.661Z,1.40
2019-03-05T01:27:16.032Z,1.50
2019-03-05T01:30:04.359Z,1.17
2019-03-05T01:32:53.752Z,1.37
2019-03-05T01:35:48.656Z,3.57
2019-03-05T01:38:40.755Z,1.97
2019-03-05T01:41:28.865Z,1.57
2019-03-05T01:44:16.222Z,1.37
2019-03-05T01:47:03.943Z,1.37
2019-03-05T01:49:51.253Z,1.93
2019-03-05T01:52:38.780Z,1.70
2019-03-05T01:55:26.436Z,1.23
2019-03-05T01:58:13.990Z,1.30
2019-03-05T02:01:01.640Z,1.67
2019-03-05T02:03:48.993Z,1.60
2019-03-05T02:06:36.694Z,1.37
2019-03-05T02:09:24.364Z,1.20
2019-03-05T02:12:12.562Z,1.53
2019-03-05T02:15:00.366Z,1.50
2019-03-05T02:17:47.869Z,1.53
2019-03-05T02:20:35.537Z,1.77
2019-03-05T02:23:32.037Z,1.40
2019-03-05T02:26:55.537Z,1.40
2019-03-05T02:29:46.333Z,1.50
2019-03-05T02:32:45.826Z,1.40
2019-03-05T02:35:39.598Z,1.23
2019-03-05T02:38:41.936Z,1.40
2019-03-05T02:41:56.537Z,1.17
2019-03-05T02:44:53.309Z,1.57
2019-03-05T02:48:12.584Z,1.57
2019-03-05T02:51:06.232Z,1.60
2019-03-05T02:54:05.771Z,1.40
2019-03-05T02:57:09.907Z,1.43
2019-03-05T02:59:57.220Z,1.47
2019-03-05T03:02:46.560Z,2.00
2019-03-05T03:05:35.723Z,1.40
2019-03-05T03:08:23.270Z,1.30
2019-03-05T03:11:10.653Z,1.60
2019-03-05T03:13:58.289Z,1.50
2019-03-05T03:16:46.133Z,1.70
2019-03-05T03:19:33.712Z,1.63
2019-03-05T03:22:21.062Z,1.17
2019-03-05T03:25:14.276Z,1.10
2019-03-05T03:28:01.731Z,1.40
2019-03-05T03:30:49.465Z,1.30
2019-03-05T03:33:37.245Z,1.40
2019-03-05T03:36:24.899Z,1.60
2019-03-05T03:39:12.624Z,1.20
2019-03-05T03:42:00.058Z,1.50
2019-03-05T03:44:47.425Z,1.40
2019-03-05T03:47:35.122Z,1.50
2019-03-05T03:50:22.986Z,1.40
2019-03-05T03:53:10.511Z,1.20
2019-03-05T03:55:57.890Z,1.43
2019-03-05T03:58:45.513Z,1.80
2019-03-05T04:01:33.234Z,2.00
2019-03-05T04:04:20.749Z,1.60
2019-03-05T04:07:08.047Z,1.37
2019-03-05T04:09:55.773Z,1.70
2019-03-05T04:12:43.135Z,1.37
2019-03-05T04:15:30.877Z,1.50
2019-03-05T04:18:18.303Z,1.27
2019-03-05T04:21:06.149Z,1.87
2019-03-05T04:23:53.870Z,1.40
2019-03-05T04:26:41.539Z,1.40
2019-03-05T04:29:29.197Z,1.40
2019-03-05T04:32:16.674Z,1.30
2019-03-05T04:35:06.525Z,1.50
2019-03-05T04:37:53.951Z,1.67
2019-03-05T04:40:41.734Z,1.37
2019-03-05T04:43:29.482Z,1.47
2019-03-05T04:46:33.550Z,1.57
2019-03-05T04:49:22.569Z,1.30
2019-03-05T04:52:11.674Z,1.20
2019-03-05T04:54:59.629Z,1.47
2019-03-05T04:57:47.361Z,1.40
2019-03-05T05:00:35.039Z,1.63
2019-03-05T05:03:22.668Z,1.20
2019-03-05T05:06:10.350Z,1.47
2019-03-05T05:08:57.770Z,1.50
2019-03-05T05:11:45.373Z,1.40
2019-03-05T05:14:33.026Z,1.63
2019-03-05T05:17:20.739Z,1.90
2019-03-05T05:20:08.406Z,1.53
2019-03-05T05:22:55.692Z,1.50
2019-03-05T05:25:43.285Z,1.40
2019-03-05T05:28:30.745Z,1.50
2019-03-05T05:31:18.399Z,1.77
2019-03-05T05:34:06.118Z,1.63
2019-03-05T05:36:53.826Z,1.50
2019-03-05T05:40:17.280Z,2.00
2019-03-05T05:43:06.612Z,1.40
2019-03-05T05:45:55.908Z,1.37
2019-03-05T05:48:43.510Z,1.53
2019-03-05T05:51:30.958Z,2.70
2019-03-05T05:54:18.611Z,1.70
2019-03-05T05:57:06.014Z,2.17
2019-03-05T05:59:53.394Z,1.57
2019-03-05T06:02:40.814Z,1.50
2019-03-05T06:05:28.485Z,1.50
2019-03-05T06:08:16.111Z,1.50
2019-03-05T06:11:03.769Z,1.60
2019-03-05T06:13:51.604Z,1.60
2019-03-05T06:16:39.050Z,1.70
2019-03-05T06:19:26.443Z,1.60
2019-03-05T06:22:13.922Z,1.63
2019-03-05T06:25:01.673Z,1.70
2019-03-05T06:27:49.343Z,1.50
2019-03-05T06:30:39.425Z,1.47
2019-03-05T06:33:27.244Z,1.37
2019-03-05T06:36:14.690Z,1.30
2019-03-05T06:39:02.300Z,1.23
2019-03-05T06:41:49.899Z,1.10
2019-03-05T06:44:37.653Z,1.20
2019-03-05T06:47:25.510Z,0.80
2019-03-05T06:50:14.430Z,1.30
2019-03-05T06:53:02.092Z,1.30
2019-03-05T06:55:49.805Z,0.80
2019-03-05T06:58:37.566Z,1.00
2019-03-05T07:01:25.065Z,0.93
2019-03-05T07:04:12.388Z,1.80
2019-03-05T07:06:59.814Z,0.83
2019-03-05T07:10:02.450Z,0.93
2019-03-05T07:12:54.393Z,0.87
2019-03-05T07:15:47.977Z,0.90
2019-03-05T07:18:41.362Z,1.03
2019-03-05T07:21:48.356Z,0.90
2019-03-05T07:24:46.470Z,1.00
2019-03-05T07:27:34.364Z,0.90
2019-03-05T07:30:22.061Z,0.93
2019-03-05T07:33:09.433Z,0.90
2019-03-05T07:35:56.870Z,0.97
2019-03-05T07:38:44.361Z,1.33
2019-03-05T07:41:31.837Z,1.10
2019-03-05T07:44:19.392Z,1.10
2019-03-05T07:47:07.088Z,1.07
2019-03-05T07:49:54.515Z,1.10
2019-03-05T07:52:42.171Z,1.03
2019-03-05T07:55:29.554Z,1.20
2019-03-05T07:58:17.060Z,1.20
2019-03-05T08:01:04.903Z,1.23
2019-03-05T08:03:52.521Z,1.23
2019-03-05T08:06:39.903Z,1.17
2019-03-05T08:09:30.659Z,1.30
2019-03-05T08:12:33.354Z,1.43
2019-03-05T08:15:24.344Z,1.20
2019-03-05T08:18:11.825Z,1.20
2019-03-05T08:20:59.528Z,1.10
2019-03-05T08:23:48.479Z,1.10
2019-03-05T08:26:35.989Z,0.90
2019-03-05T08:29:23.658Z,0.93
2019-03-05T08:32:11.348Z,1.23
2019-03-05T08:34:58.812Z,1.00
2019-03-05T08:37:46.553Z,1.00
2019-03-05T08:40:34.137Z,1.40
2019-03-05T08:43:21.595Z,0.90
2019-03-05T08:46:09.294Z,2.10
2019-03-05T08:48:56.689Z,1.37
2019-03-05T08:51:44.406Z,1.07
2019-03-05T08:54:32.208Z,0.80
2019-03-05T08:57:19.853Z,1.00
2019-03-05T09:00:20.763Z,0.80
2019-03-05T09:03:08.541Z,1.10
2019-03-05T09:05:56.206Z,1.23
2019-03-05T09:08:43.629Z,0.90
2019-03-05T09:11:31.119Z,1.37
2019-03-05T09:14:18.660Z,0.83
2019-03-05T09:17:06.147Z,1.10
2019-03-05T09:23:40.992Z,1.10
2019-03-05T09:26:28.608Z,1.20
2019-03-05T09:29:16.188Z,1.30
2019-03-05T09:32:03.800Z,1.37
2019-03-05T09:34:51.263Z,1.20
2019-03-05T09:37:38.693Z,0.93
2019-03-05T09:40:28.289Z,1.00
2019-03-05T09:43:16.444Z,1.20
2019-03-05T09:46:04.503Z,1.07
2019-03-05T09:48:52.136Z,0.83
2019-03-05T09:51:39.468Z,0.90
2019-03-05T09:54:27.160Z,1.07
2019-03-05T09:57:14.835Z,1.20
2019-03-05T10:00:02.287Z,1.10
2019-03-05T10:02:49.779Z,0.70
2019-03-05T10:05:37.371Z,1.17
2019-03-05T10:08:32.474Z,0.93
2019-03-05T10:11:14.195Z,1.10
2019-03-05T10:14:01.754Z,1.20
2019-03-05T10:16:49.466Z,0.90
2019-03-05T10:19:38.502Z,1.20
2019-03-05T10:22:26.132Z,1.03
2019-03-05T10:25:15.724Z,1.17
2019-03-05T10:28:03.487Z,1.07
2019-03-05T10:30:50.951Z,1.00
2019-03-05T10:33:38.777Z,1.40
2019-03-05T10:36:26.587Z,0.83
2019-03-05T10:39:30.698Z,1.40
2019-03-05T10:42:12.541Z,1.00
2019-03-05T10:45:00.004Z,1.17
2019-03-05T10:47:52.629Z,1.13
2019-03-05T10:50:40.064Z,1.13
2019-03-05T10:53:28.308Z,1.40
2019-03-05T10:56:16.489Z,1.20
2019-03-05T10:59:05.383Z,1.20
2019-03-05T11:01:53.173Z,0.97
2019-03-05T11:04:45.674Z,1.23
2019-03-05T11:07:30.226Z,1.40
2019-03-05T11:10:17.914Z,1.20
2019-03-05T11:13:05.351Z,0.93
2019-03-05T11:15:57.962Z,1.23
2019-03-05T11:18:45.700Z,1.20
2019-03-05T11:21:33.436Z,1.23
2019-03-05T11:24:20.897Z,1.10
2019-03-05T11:27:08.663Z,0.77
2019-03-05T11:29:56.031Z,1.10
2019-03-05T11:32:44.077Z,0.90
2019-03-05T11:35:32.607Z,1.13
2019-03-05T11:38:20.529Z,0.90
2019-03-05T11:41:07.994Z,0.90
2019-03-05T11:43:55.385Z,0.93
2019-03-05T11:46:43.162Z,0.73
2019-03-05T11:49:30.893Z,0.90
2019-03-05T11:52:18.389Z,1.10
2019-03-05T11:55:09.541Z,0.73
2019-03-05T11:57:57.009Z,0.80
2019-03-05T12:00:49.269Z,0.80
2019-03-05T12:03:36.928Z,0.60
2019-03-05T12:06:24.728Z,0.90
2019-03-05T12:09:12.430Z,0.50
2019-03-05T12:12:00.510Z,0.60
2019-03-05T12:14:48.189Z,0.60
2019-03-05T12:17:35.922Z,0.73
2019-03-05T12:20:23.388Z,0.73
2019-03-05T12:23:11.913Z,0.77
2019-03-05T12:25:59.491Z,0.90
2019-03-05T12:28:47.169Z,0.67
2019-03-05T12:31:34.557Z,0.63
2019-03-05T12:34:22.142Z,0.90
2019-03-05T12:37:09.962Z,0.47
2019-03-05T12:39:57.616Z,0.80
2019-03-05T12:42:45.375Z,0.70
2019-03-05T12:45:32.855Z,0.70
2019-03-05T12:48:20.612Z,0.47
2019-03-05T12:51:09.161Z,0.80
2019-03-05T12:53:56.557Z,0.50
2019-03-05T12:56:44.318Z,0.70
2019-03-05T12:59:31.774Z,1.17
2019-03-05T13:02:19.209Z,0.80
2019-03-05T13:05:12.574Z,0.60
2019-03-05T13:08:00.237Z,0.70
2019-03-05T13:10:47.863Z,0.67
2019-03-05T13:13:37.313Z,0.83
2019-03-05T13:16:24.837Z,0.67
2019-03-05T13:19:12.237Z,0.50
2019-03-05T13:21:59.887Z,0.80
2019-03-05T13:24:50.220Z,0.90
2019-03-05T13:27:37.041Z,0.50
2019-03-05T13:30:29.131Z,0.53
2019-03-05T13:33:16.780Z,0.60
2019-03-05T13:36:12.191Z,0.60
2019-03-05T13:38:54.866Z,0.60
2019-03-05T13:41:42.387Z,0.63
2019-03-05T13:44:32.228Z,0.80
2019-03-05T13:47:20.177Z,0.80
2019-03-05T13:50:19.939Z,0.53
2019-03-05T13:53:39.089Z,0.83
2019-03-05T13:56:58.135Z,0.60
2019-03-05T13:59:47.827Z,0.83
2019-03-05T14:02:38.409Z,0.70
2019-03-05T14:05:35.166Z,0.87
2019-03-05T14:08:31.462Z,0.63
2019-03-05T14:11:18.877Z,0.70
2019-03-05T14:14:07.413Z,1.23
2019-03-05T14:16:57.012Z,0.90
2019-03-05T14:19:44.463Z,0.63
2019-03-05T14:22:32.083Z,0.73
2019-03-05T14:25:19.493Z,0.80
2019-03-05T14:28:07.311Z,0.80
2019-03-05T14:30:55.052Z,0.73
2019-03-05T14:33:42.728Z,0.50
2019-03-05T14:36:30.219Z,0.60
2019-03-05T14:39:25.705Z,0.87
2019-03-05T14:42:13.727Z,0.67
2019-03-05T14:45:01.562Z,1.70
2019-03-05T14:47:49.494Z,1.20
2019-03-05T14:50:36.955Z,1.37
2019-03-05T14:53:24.344Z,2.00
2019-03-05T14:56:12.180Z,1.43
2019-03-05T14:58:59.727Z,1.70
2019-03-05T15:01:47.108Z,1.40
2019-03-05T15:04:34.621Z,1.33
2019-03-05T15:07:22.264Z,1.07
2019-03-05T15:10:10.180Z,1.13
2019-03-05T15:12:57.633Z,1.20
2019-03-05T15:15:45.432Z,1.00
2019-03-05T15:18:33.108Z,1.27
2019-03-05T15:21:20.544Z,1.00
2019-03-05T15:24:08.049Z,1.40
2019-03-05T15:26:55.885Z,1.30
2019-03-05T15:29:43.270Z,1.50
2019-03-05T15:32:31.075Z,1.20
2019-03-05T15:35:18.719Z,1.53
2019-03-05T15:38:06.362Z,1.10
2019-03-05T15:40:53.953Z,0.80
2019-03-05T15:43:41.385Z,0.80
2019-03-05T15:46:29.143Z,1.13
2019-03-05T15:49:16.533Z,0.70
2019-03-05T15:52:04.119Z,0.70
2019-03-05T15:54:51.407Z,0.80
2019-03-05T15:57:38.890Z,1.20
2019-03-05T16:00:29.990Z,1.00
2019-03-05T16:03:17.668Z,1.90
2019-03-05T16:06:05.198Z,2.07
2019-03-05T16:08:52.735Z,0.93
2019-03-05T16:11:40.163Z,1.10
2019-03-05T16:14:29.620Z,1.47
2019-03-05T16:17:18.660Z,2.03
2019-03-05T16:20:09.150Z,1.70
2019-03-05T16:22:56.912Z,1.30
2019-03-05T16:25:46.199Z,1.53
2019-03-05T16:28:34.549Z,1.10
2019-03-05T16:31:26.738Z,1.80
2019-03-05T16:34:24.902Z,1.40
2019-03-05T16:37:16.827Z,3.20
2019-03-05T16:40:10.725Z,3.00
2019-03-05T16:43:03.009Z,3.40
2019-03-05T16:45:55.062Z,1.90
2019-03-05T16:48:53.749Z,5.53
2019-03-05T16:51:42.813Z,5.60
2019-03-05T16:54:32.496Z,4.43
2019-03-05T16:57:21.993Z,4.30
2019-03-05T17:00:25.204Z,3.73
2019-03-05T17:03:33.800Z,4.77
2019-03-05T17:06:25.605Z,6.07
2019-03-05T17:09:31.165Z,2.97
2019-03-05T17:12:19.073Z,2.83
2019-03-05T17:15:08.522Z,1.90
2019-03-05T17:34:39.156Z,3.00
2019-03-05T17:37:26.936Z,2.40
2019-03-05T17:43:30.696Z,1.83
2019-03-05T17:46:18.174Z,1.60
2019-03-05T17:49:07.902Z,1.03
2019-03-05T17:51:55.884Z,1.50
2019-03-05T17:54:43.665Z,1.40
2019-03-05T17:57:32.860Z,2.07
2019-03-05T18:00:23.086Z,2.60
2019-03-05T18:03:10.512Z,2.03
2019-03-05T18:05:58.180Z,1.90
2019-03-05T18:08:45.782Z,2.10
2019-03-05T18:11:33.530Z,3.20
2019-03-05T18:14:21.310Z,7.20
2019-03-05T18:17:23.829Z,4.87
2019-03-05T18:20:22.217Z,3.20
2019-03-05T18:23:10.129Z,3.17
2019-03-05T18:25:57.838Z,2.60
2019-03-05T18:28:45.732Z,4.23
2019-03-05T18:31:33.132Z,4.03
2019-03-05T18:34:20.713Z,3.47
2019-03-05T18:37:08.365Z,2.07
2019-03-05T18:39:55.751Z,2.00
2019-03-05T18:42:43.814Z,1.90
2019-03-05T18:45:36.566Z,2.50
2019-03-05T18:48:23.954Z,3.13
2019-03-05T18:51:11.720Z,4.73
2019-03-05T18:53:59.106Z,2.80
2019-03-05T18:56:46.534Z,2.40
2019-03-05T18:59:33.923Z,2.70
2019-03-05T19:02:21.644Z,4.77
2019-03-05T19:05:11.284Z,3.20
2019-03-05T19:07:58.912Z,2.60
2019-03-05T19:10:46.430Z,2.63
2019-03-05T19:13:33.878Z,2.07
2019-03-05T19:16:21.529Z,1.30
2019-03-05T19:19:08.899Z,1.17
2019-03-05T19:21:56.531Z,1.30
2019-03-05T19:24:44.247Z,1.27
2019-03-05T19:27:32.669Z,1.50
2019-03-05T19:30:25.466Z,1.70
2019-03-05T19:33:13.193Z,4.00
2019-03-05T19:36:00.591Z,2.30
2019-03-05T19:38:50.447Z,1.90
2019-03-05T19:41:38.101Z,2.27
2019-03-05T19:44:25.437Z,3.17
2019-03-05T19:47:13.144Z,3.20
2019-03-05T19:50:00.808Z,2.47
2019-03-05T19:52:48.653Z,1.63
2019-03-05T19:55:36.446Z,2.10
2019-03-05T19:58:23.958Z,2.53
2019-03-05T20:01:13.668Z,3.40
2019-03-05T20:04:01.141Z,1.97
2019-03-05T20:06:48.950Z,1.77
2019-03-05T20:09:36.654Z,1.30
2019-03-05T20:12:24.614Z,1.10
2019-03-05T20:15:15.106Z,1.13
2019-03-05T20:18:03.301Z,0.90
2019-03-05T20:20:50.833Z,1.00
2019-03-05T20:23:38.504Z,1.60
2019-03-05T20:26:25.942Z,1.13
2019-03-05T20:29:13.329Z,1.40
2019-03-05T20:32:00.880Z,1.37
2019-03-05T20:34:48.743Z,1.40
2019-03-05T20:37:36.462Z,1.20
2019-03-05T20:40:26.119Z,1.30
2019-03-05T20:43:13.725Z,1.30
2019-03-05T20:46:07.259Z,1.10
2019-03-05T20:48:55.362Z,1.20
2019-03-05T20:51:43.004Z,1.30
2019-03-05T20:54:30.520Z,1.20
2019-03-05T20:57:18.061Z,2.40
2019-03-05T21:00:11.341Z,1.30
2019-03-05T21:03:03.910Z,1.20
2019-03-05T21:05:51.435Z,1.50
2019-03-05T21:08:39.120Z,1.30
2019-03-05T21:11:26.590Z,1.30
2019-03-05T21:14:14.021Z,1.60
2019-03-05T21:40:44.993Z,1.60
2019-03-05T23:12:56.626Z,2.87
2019-03-05T23:38:55.519Z,3.90
